createdAt,value
2018-05-06T00:01:56.138Z,26.49
2018-05-06T00:04:27.998Z,26.50
2018-05-06T00:06:59.536Z,26.53
2018-05-06T00:09:31.449Z,26.53
2018-05-06T00:12:04.308Z,26.53
2018-05-06T00:14:36.585Z,26.48
2018-05-06T00:17:08.054Z,26.47
2018-05-06T00:19:40.051Z,26.44
2018-05-06T00:22:12.822Z,26.48
2018-05-06T00:24:44.451Z,26.51
2018-05-06T00:27:16.060Z,26.52
2018-05-06T00:30:21.444Z,26.52
2018-05-06T00:32:53.298Z,26.51
2018-05-06T00:35:25.161Z,26.53
2018-05-06T00:37:56.581Z,26.63
2018-05-06T00:40:28.033Z,26.66
2018-05-06T00:42:59.576Z,26.64
2018-05-06T00:45:32.458Z,26.61
2018-05-06T00:48:03.993Z,26.59
2018-05-06T00:50:35.587Z,26.59
2018-05-06T00:53:07.880Z,26.59
2018-05-06T00:55:39.323Z,26.55
2018-05-06T00:58:10.990Z,26.57
2018-05-06T01:00:42.953Z,26.56
2018-05-06T01:03:15.203Z,26.56
2018-05-06T01:05:47.027Z,26.50
2018-05-06T01:08:19.279Z,26.46
2018-05-06T01:10:51.456Z,26.43
2018-05-06T01:13:24.736Z,26.42
2018-05-06T01:15:56.988Z,26.40
2018-05-06T01:18:29.281Z,26.36
2018-05-06T01:21:01.182Z,26.34
2018-05-06T01:23:32.861Z,26.30
2018-05-06T01:26:05.214Z,26.24
2018-05-06T01:28:37.077Z,26.17
2018-05-06T01:31:08.769Z,26.19
2018-05-06T01:33:40.550Z,26.23
2018-05-06T01:38:14.963Z,26.18
2018-05-06T01:40:46.551Z,26.13
2018-05-06T01:43:18.548Z,26.12
2018-05-06T01:45:50.541Z,26.08
2018-05-06T01:48:21.993Z,26.02
2018-05-06T01:50:53.445Z,25.99
2018-05-06T01:53:26.638Z,25.94
2018-05-06T01:57:39.483Z,25.93
2018-05-06T02:00:12.488Z,25.91
2018-05-06T02:02:45.476Z,25.87
2018-05-06T02:05:18.752Z,25.81
2018-05-06T02:07:51.445Z,25.76
2018-05-06T02:10:24.410Z,25.72
2018-05-06T02:12:57.095Z,25.70
2018-05-06T02:15:30.441Z,25.69
2018-05-06T02:18:03.571Z,25.65
2018-05-06T02:20:36.498Z,25.63
2018-05-06T02:23:09.407Z,25.62
2018-05-06T02:25:42.675Z,25.60
2018-05-06T02:28:15.450Z,25.57
2018-05-06T02:30:48.445Z,25.55
2018-05-06T02:33:21.457Z,25.52
2018-05-06T02:35:54.625Z,25.49
2018-05-06T02:38:27.450Z,25.47
2018-05-06T02:41:00.272Z,25.42
2018-05-06T02:43:33.197Z,25.37
2018-05-06T02:46:05.878Z,25.34
2018-05-06T02:48:38.721Z,25.30
2018-05-06T02:51:11.674Z,25.26
2018-05-06T02:53:44.928Z,25.23
2018-05-06T02:56:18.102Z,25.19
2018-05-06T02:58:51.165Z,25.14
2018-05-06T03:01:24.425Z,25.10
2018-05-06T03:03:57.424Z,25.08
2018-05-06T03:06:29.966Z,25.09
2018-05-06T03:09:03.505Z,25.05
2018-05-06T03:11:36.073Z,25.01
2018-05-06T03:14:09.509Z,25.01
2018-05-06T03:16:42.607Z,25.00
2018-05-06T03:19:15.599Z,24.99
2018-05-06T03:21:48.411Z,24.98
2018-05-06T03:24:21.487Z,24.91
2018-05-06T03:26:54.249Z,24.85
2018-05-06T03:29:26.950Z,24.82
2018-05-06T03:31:59.699Z,24.79
2018-05-06T03:34:32.951Z,24.77
2018-05-06T03:37:06.238Z,24.75
2018-05-06T03:39:39.562Z,24.75
2018-05-06T03:42:13.243Z,24.73
2018-05-06T03:44:46.538Z,24.67
2018-05-06T03:47:19.534Z,24.63
2018-05-06T03:49:53.090Z,24.57
2018-05-06T03:52:25.941Z,24.52
2018-05-06T03:54:58.864Z,24.48
2018-05-06T03:57:42.669Z,24.43
2018-05-06T04:00:26.794Z,24.37
2018-05-06T04:03:00.023Z,24.35
2018-05-06T04:05:34.355Z,24.34
2018-05-06T04:08:07.333Z,24.30
2018-05-06T04:10:40.698Z,24.27
2018-05-06T04:13:13.395Z,24.27
2018-05-06T04:15:46.063Z,24.25
2018-05-06T04:18:19.530Z,24.21
2018-05-06T04:20:53.107Z,24.20
2018-05-06T04:23:26.211Z,24.22
2018-05-06T04:25:59.454Z,24.20
2018-05-06T04:28:33.382Z,24.16
2018-05-06T04:31:06.527Z,24.12
2018-05-06T04:33:39.424Z,24.09
2018-05-06T04:36:12.075Z,24.05
2018-05-06T04:38:45.692Z,24.01
2018-05-06T04:41:18.424Z,23.94
2018-05-06T04:43:51.430Z,23.87
2018-05-06T04:46:24.617Z,23.90
2018-05-06T04:48:57.815Z,23.93
2018-05-06T04:51:30.400Z,23.90
2018-05-06T04:54:03.458Z,23.95
2018-05-06T04:56:36.417Z,23.93
2018-05-06T04:59:10.581Z,23.86
2018-05-06T05:01:43.777Z,23.78
2018-05-06T05:04:17.790Z,23.70
2018-05-06T05:06:51.465Z,23.66
2018-05-06T05:09:24.244Z,23.72
2018-05-06T05:11:57.150Z,23.69
2018-05-06T05:14:29.878Z,23.64
2018-05-06T05:17:03.159Z,23.59
2018-05-06T05:19:35.956Z,23.55
2018-05-06T05:22:09.131Z,23.56
2018-05-06T05:24:42.481Z,23.59
2018-05-06T05:27:15.437Z,23.59
2018-05-06T05:29:47.798Z,23.55
2018-05-06T05:32:20.449Z,23.50
2018-05-06T05:34:53.481Z,23.44
2018-05-06T05:37:26.418Z,23.44
2018-05-06T05:39:59.786Z,23.45
2018-05-06T05:42:33.062Z,23.44
2018-05-06T05:45:06.332Z,23.47
2018-05-06T05:47:39.222Z,23.42
2018-05-06T05:50:12.074Z,23.35
2018-05-06T05:52:45.788Z,23.30
2018-05-06T05:55:18.628Z,23.24
2018-05-06T05:57:52.555Z,23.24
2018-05-06T06:00:25.547Z,23.23
2018-05-06T06:02:58.228Z,23.17
2018-05-06T06:05:31.233Z,23.12
2018-05-06T06:08:04.343Z,23.10
2018-05-06T06:10:37.252Z,23.11
2018-05-06T06:13:10.554Z,23.08
2018-05-06T06:15:43.550Z,23.00
2018-05-06T06:18:17.079Z,22.98
2018-05-06T06:20:49.496Z,22.90
2018-05-06T06:25:06.093Z,22.89
2018-05-06T06:27:39.091Z,22.93
2018-05-06T06:30:12.692Z,22.92
2018-05-06T06:32:45.722Z,22.90
2018-05-06T06:35:19.114Z,22.88
2018-05-06T06:37:52.340Z,22.83
2018-05-06T06:40:25.496Z,22.84
2018-05-06T06:42:58.352Z,22.84
2018-05-06T06:48:10.205Z,22.71
2018-05-06T06:50:43.555Z,22.71
2018-05-06T06:53:16.347Z,22.70
2018-05-06T06:55:49.956Z,22.70
2018-05-06T06:58:23.270Z,22.65
2018-05-06T07:00:56.134Z,22.60
2018-05-06T07:03:28.353Z,22.62
2018-05-06T07:06:01.367Z,22.58
2018-05-06T07:08:34.355Z,22.59
2018-05-06T07:11:07.494Z,22.57
2018-05-06T07:13:39.570Z,22.54
2018-05-06T07:16:12.422Z,22.50
2018-05-06T07:18:46.551Z,22.48
2018-05-06T07:21:19.478Z,22.50
2018-05-06T07:23:52.562Z,22.44
2018-05-06T07:26:25.568Z,22.47
2018-05-06T07:28:59.248Z,22.53
2018-05-06T07:31:32.279Z,22.57
2018-05-06T07:34:05.576Z,22.56
2018-05-06T07:36:38.261Z,22.57
2018-05-06T07:39:16.356Z,22.58
2018-05-06T07:41:49.638Z,22.59
2018-05-06T07:44:23.567Z,22.57
2018-05-06T07:46:56.297Z,22.59
2018-05-06T07:49:29.269Z,22.57
2018-05-06T07:52:01.582Z,22.58
2018-05-06T07:54:35.606Z,22.57
2018-05-06T07:57:08.438Z,22.51
2018-05-06T07:59:40.814Z,22.42
2018-05-06T08:02:14.443Z,22.42
2018-05-06T08:04:47.267Z,22.40
2018-05-06T08:07:20.139Z,22.38
2018-05-06T08:09:53.435Z,22.33
2018-05-06T08:12:26.575Z,22.26
2018-05-06T08:15:00.443Z,22.16
2018-05-06T08:17:33.515Z,22.14
2018-05-06T08:20:06.449Z,22.15
2018-05-06T08:22:39.714Z,22.14
2018-05-06T08:25:12.705Z,22.12
2018-05-06T08:27:45.465Z,22.10
2018-05-06T08:30:18.649Z,22.14
2018-05-06T08:32:51.589Z,22.11
2018-05-06T08:35:23.974Z,22.06
2018-05-06T08:37:57.502Z,22.08
2018-05-06T08:40:30.794Z,22.07
2018-05-06T08:43:04.316Z,21.98
2018-05-06T08:45:37.459Z,21.98
2018-05-06T08:48:10.370Z,21.99
2018-05-06T08:50:44.075Z,21.89
2018-05-06T08:53:17.589Z,21.78
2018-05-06T08:55:51.485Z,21.70
2018-05-06T08:58:24.468Z,21.71
2018-05-06T09:00:57.180Z,21.76
2018-05-06T09:03:29.969Z,21.78
2018-05-06T09:06:03.618Z,21.83
2018-05-06T09:08:36.530Z,21.88
2018-05-06T09:11:10.387Z,21.92
2018-05-06T09:13:43.711Z,21.88
2018-05-06T09:16:15.311Z,21.92
2018-05-06T09:18:48.686Z,21.94
2018-05-06T09:21:21.552Z,21.95
2018-05-06T09:23:54.514Z,21.92
2018-05-06T09:26:27.521Z,21.82
2018-05-06T09:29:00.425Z,21.80
2018-05-06T09:31:33.508Z,21.82
2018-05-06T09:34:05.967Z,21.83
2018-05-06T09:36:39.453Z,21.84
2018-05-06T09:39:12.068Z,21.84
2018-05-06T09:41:44.974Z,21.79
2018-05-06T09:44:18.343Z,21.75
2018-05-06T09:46:51.444Z,21.72
2018-05-06T09:49:24.540Z,21.73
2018-05-06T09:51:58.170Z,21.74
2018-05-06T09:54:31.415Z,21.76
2018-05-06T09:57:04.542Z,21.74
2018-05-06T09:59:38.240Z,21.71
2018-05-06T10:02:10.944Z,21.71
2018-05-06T10:04:44.422Z,21.74
2018-05-06T10:07:19.543Z,21.77
2018-05-06T10:09:52.538Z,21.75
2018-05-06T10:12:25.849Z,21.73
2018-05-06T10:14:58.541Z,21.72
2018-05-06T10:17:31.539Z,21.70
2018-05-06T10:20:05.406Z,21.60
2018-05-06T10:22:37.945Z,21.59
2018-05-06T10:25:11.105Z,21.59
2018-05-06T10:27:44.535Z,21.55
2018-05-06T10:30:17.881Z,21.57
2018-05-06T10:32:50.513Z,21.59
2018-05-06T10:35:23.242Z,21.54
2018-05-06T10:37:55.471Z,21.54
2018-05-06T10:40:29.623Z,21.51
2018-05-06T10:43:02.434Z,21.51
2018-05-06T10:45:35.545Z,21.53
2018-05-06T10:48:08.731Z,21.54
2018-05-06T10:50:41.787Z,21.49
2018-05-06T10:53:14.940Z,21.51
2018-05-06T10:55:47.250Z,21.50
2018-05-06T10:58:20.946Z,21.49
2018-05-06T11:00:54.342Z,21.49
2018-05-06T11:03:27.096Z,21.44
2018-05-06T11:05:59.946Z,21.39
2018-05-06T11:08:33.689Z,21.39
2018-05-06T11:11:07.430Z,21.37
2018-05-06T11:13:40.710Z,21.35
2018-05-06T11:16:12.963Z,21.36
2018-05-06T11:18:45.977Z,21.35
2018-05-06T11:21:18.962Z,21.31
2018-05-06T11:23:51.677Z,21.36
2018-05-06T11:26:24.623Z,21.38
2018-05-06T11:28:57.437Z,21.37
2018-05-06T11:31:30.364Z,21.41
2018-05-06T11:34:03.476Z,21.46
2018-05-06T11:36:36.554Z,21.42
2018-05-06T11:39:09.638Z,21.40
2018-05-06T11:42:15.427Z,21.38
2018-05-06T11:44:48.717Z,21.36
2018-05-06T11:47:21.674Z,21.37
2018-05-06T11:49:54.947Z,21.36
2018-05-06T11:52:28.544Z,21.34
2018-05-06T11:55:01.506Z,21.33
2018-05-06T11:57:34.317Z,21.32
2018-05-06T12:00:06.948Z,21.33
2018-05-06T12:02:39.661Z,21.35
2018-05-06T12:05:12.078Z,21.31
2018-05-06T12:07:45.252Z,21.26
2018-05-06T12:10:17.564Z,21.22
2018-05-06T12:12:50.554Z,21.16
2018-05-06T12:15:23.550Z,21.13
2018-05-06T12:17:56.533Z,21.12
2018-05-06T12:20:29.257Z,21.12
2018-05-06T12:23:02.713Z,21.09
2018-05-06T12:25:35.647Z,21.10
2018-05-06T12:28:09.455Z,21.07
2018-05-06T12:30:42.396Z,21.15
2018-05-06T12:33:15.571Z,21.22
2018-05-06T12:35:48.540Z,21.25
2018-05-06T12:38:21.428Z,21.21
2018-05-06T12:40:54.905Z,21.19
2018-05-06T12:43:27.533Z,21.17
2018-05-06T12:46:00.856Z,21.17
2018-05-06T12:48:34.044Z,21.13
2018-05-06T12:54:02.277Z,21.08
2018-05-06T12:56:34.854Z,21.11
2018-05-06T12:59:08.572Z,21.11
2018-05-06T13:01:41.714Z,21.06
2018-05-06T13:04:15.575Z,21.10
2018-05-06T13:06:49.675Z,21.07
2018-05-06T13:09:23.545Z,21.01
2018-05-06T13:11:57.439Z,21.02
2018-05-06T13:14:30.543Z,21.03
2018-05-06T13:17:03.708Z,21.08
2018-05-06T13:19:37.258Z,21.05
2018-05-06T13:22:10.208Z,21.04
2018-05-06T13:24:43.404Z,21.11
2018-05-06T13:27:16.565Z,21.12
2018-05-06T13:29:50.419Z,21.11
2018-05-06T13:32:24.549Z,21.14
2018-05-06T13:34:57.090Z,21.13
2018-05-06T13:37:29.874Z,21.12
2018-05-06T13:40:02.990Z,21.08
2018-05-06T13:42:36.254Z,21.04
2018-05-06T13:45:09.502Z,21.02
2018-05-06T13:47:42.443Z,20.99
2018-05-06T13:50:15.559Z,20.98
2018-05-06T13:52:47.988Z,20.97
2018-05-06T13:55:21.606Z,20.96
2018-05-06T13:57:54.568Z,20.89
2018-05-06T14:00:27.454Z,20.87
2018-05-06T14:03:00.436Z,20.89
2018-05-06T14:05:32.947Z,20.87
2018-05-06T14:08:05.954Z,20.80
2018-05-06T14:10:39.608Z,20.84
2018-05-06T14:13:12.545Z,20.87
2018-05-06T14:15:45.170Z,20.86
2018-05-06T14:18:18.540Z,20.86
2018-05-06T14:20:52.118Z,20.82
2018-05-06T14:23:25.559Z,20.78
2018-05-06T14:25:59.101Z,20.77
2018-05-06T14:28:32.343Z,20.79
2018-05-06T14:31:05.709Z,20.79
2018-05-06T14:33:39.441Z,20.85
2018-05-06T14:36:12.253Z,20.87
2018-05-06T14:38:44.775Z,20.85
2018-05-06T14:41:18.676Z,20.77
2018-05-06T14:43:51.509Z,20.72
2018-05-06T14:46:34.698Z,20.73
2018-05-06T14:49:07.501Z,20.73
2018-05-06T14:51:40.046Z,20.72
2018-05-06T14:54:13.508Z,20.70
2018-05-06T14:56:46.339Z,20.73
2018-05-06T14:59:19.644Z,20.76
2018-05-06T15:01:53.433Z,20.77
2018-05-06T15:04:26.433Z,20.76
2018-05-06T15:06:59.494Z,20.74
2018-05-06T15:09:32.344Z,20.76
2018-05-06T15:12:05.559Z,20.79
2018-05-06T15:14:41.266Z,20.79
2018-05-06T15:17:14.520Z,20.77
2018-05-06T15:19:47.615Z,20.75
2018-05-06T15:22:21.191Z,20.75
2018-05-06T15:24:54.621Z,20.73
2018-05-06T15:27:27.438Z,20.75
2018-05-06T15:30:00.445Z,20.77
2018-05-06T15:32:33.755Z,20.81
2018-05-06T15:35:07.249Z,20.78
2018-05-06T15:37:40.449Z,20.75
2018-05-06T15:40:13.286Z,20.76
2018-05-06T15:42:45.954Z,20.79
2018-05-06T15:45:18.750Z,20.78
2018-05-06T15:47:52.351Z,20.77
2018-05-06T15:50:25.602Z,20.78
2018-05-06T15:52:58.352Z,20.86
2018-05-06T15:55:31.695Z,20.90
2018-05-06T15:58:04.705Z,20.88
2018-05-06T16:00:37.688Z,20.87
2018-05-06T16:03:21.721Z,20.77
2018-05-06T16:05:54.502Z,20.80
2018-05-06T16:08:27.461Z,20.90
2018-05-06T16:11:00.130Z,20.90
2018-05-06T16:13:33.062Z,20.90
2018-05-06T16:16:06.099Z,20.91
2018-05-06T16:18:39.436Z,20.96
2018-05-06T16:21:12.284Z,20.99
2018-05-06T16:23:45.198Z,20.97
2018-05-06T16:26:18.310Z,21.02
2018-05-06T16:28:51.186Z,21.07
2018-05-06T16:31:24.425Z,21.10
2018-05-06T16:33:57.189Z,21.15
2018-05-06T16:36:30.469Z,21.19
2018-05-06T16:39:03.849Z,21.21
2018-05-06T16:41:36.979Z,21.22
2018-05-06T16:44:09.204Z,21.24
2018-05-06T16:46:42.441Z,21.28
2018-05-06T16:49:15.690Z,21.34
2018-05-06T16:51:49.099Z,21.40
2018-05-06T16:54:22.012Z,21.48
2018-05-06T16:56:54.434Z,21.50
2018-05-06T16:59:27.515Z,21.55
2018-05-06T17:02:00.362Z,21.61
2018-05-06T17:04:33.487Z,21.67
2018-05-06T17:07:05.973Z,21.69
2018-05-06T17:09:39.012Z,21.73
2018-05-06T17:12:12.262Z,21.78
2018-05-06T17:14:45.171Z,21.83
2018-05-06T17:17:18.003Z,21.88
2018-05-06T17:19:51.733Z,21.93
2018-05-06T17:22:25.366Z,21.97
2018-05-06T17:24:57.984Z,22.04
2018-05-06T17:27:31.277Z,22.07
2018-05-06T17:30:04.084Z,22.09
2018-05-06T17:32:37.135Z,22.15
2018-05-06T17:35:10.096Z,22.22
2018-05-06T17:37:43.567Z,22.23
2018-05-06T17:40:16.700Z,22.25
2018-05-06T17:42:48.505Z,22.27
2018-05-06T17:45:19.989Z,22.35
2018-05-06T17:47:52.000Z,22.41
2018-05-06T17:50:24.019Z,22.49
2018-05-06T17:52:57.532Z,22.56
2018-05-06T17:55:30.457Z,22.58
2018-05-06T17:58:03.157Z,22.59
2018-05-06T18:00:36.905Z,22.61
2018-05-06T18:03:09.526Z,22.68
2018-05-06T18:05:42.266Z,22.73
2018-05-06T18:08:15.720Z,22.78
2018-05-06T18:10:48.542Z,22.84
2018-05-06T18:13:22.418Z,22.91
2018-05-06T18:15:55.462Z,22.99
2018-05-06T18:18:28.597Z,23.07
2018-05-06T18:21:01.589Z,23.11
2018-05-06T18:23:35.781Z,23.17
2018-05-06T18:26:09.529Z,23.22
2018-05-06T18:28:44.345Z,23.29
2018-05-06T18:31:17.836Z,23.33
2018-05-06T18:33:50.993Z,23.38
2018-05-06T18:36:23.767Z,23.43
2018-05-06T18:38:57.544Z,23.48
2018-05-06T18:41:30.156Z,23.53
2018-05-06T18:44:02.988Z,23.58
2018-05-06T18:46:37.474Z,23.65
2018-05-06T18:49:10.052Z,23.72
2018-05-06T18:51:44.532Z,23.78
2018-05-06T18:54:17.473Z,23.85
2018-05-06T18:56:50.078Z,23.88
2018-05-06T18:59:22.390Z,23.94
2018-05-06T19:01:54.593Z,24.01
2018-05-06T19:04:27.951Z,24.07
2018-05-06T19:07:00.325Z,24.16
2018-05-06T19:09:34.094Z,24.22
2018-05-06T19:12:07.023Z,24.28
2018-05-06T19:14:39.537Z,24.33
2018-05-06T19:17:13.634Z,24.38
2018-05-06T19:19:47.157Z,24.43
2018-05-06T19:22:20.514Z,24.49
2018-05-06T19:24:53.684Z,24.52
2018-05-06T19:27:26.428Z,24.56
2018-05-06T19:29:59.518Z,24.62
2018-05-06T19:32:32.332Z,24.68
2018-05-06T19:35:05.274Z,24.70
2018-05-06T19:37:38.823Z,24.77
2018-05-06T19:40:11.610Z,24.85
2018-05-06T19:42:44.804Z,24.91
2018-05-06T19:45:18.363Z,24.97
2018-05-06T19:47:51.474Z,25.05
2018-05-06T19:50:23.938Z,25.09
2018-05-06T19:52:56.412Z,25.13
2018-05-06T19:55:29.231Z,25.21
2018-05-06T19:58:02.327Z,25.30
2018-05-06T20:00:35.412Z,25.34
2018-05-06T20:03:09.408Z,25.35
2018-05-06T20:05:42.276Z,25.40
2018-05-06T20:08:15.699Z,25.44
2018-05-06T20:10:49.240Z,25.51
2018-05-06T20:13:22.082Z,25.59
2018-05-06T20:15:54.952Z,25.63
2018-05-06T20:18:27.660Z,25.70
2018-05-06T20:21:01.038Z,25.78
2018-05-06T20:23:34.364Z,25.87
2018-05-06T20:26:06.451Z,25.96
2018-05-06T20:28:38.953Z,26.02
2018-05-06T20:31:11.784Z,26.09
2018-05-06T20:33:45.724Z,26.16
2018-05-06T20:36:19.442Z,26.19
2018-05-06T20:38:52.548Z,26.26
2018-05-06T20:41:25.769Z,26.31
2018-05-06T20:43:58.765Z,26.39
2018-05-06T20:46:31.472Z,26.45
2018-05-06T20:49:04.751Z,26.53
2018-05-06T20:51:38.571Z,26.61
2018-05-06T20:56:57.646Z,26.74
2018-05-06T20:59:31.015Z,26.78
2018-05-06T21:02:04.857Z,26.86
2018-05-06T21:04:38.304Z,26.96
2018-05-06T21:07:11.624Z,27.04
2018-05-06T21:09:44.808Z,27.11
2018-05-06T21:12:18.631Z,27.19
2018-05-06T21:14:51.483Z,27.28
2018-05-06T21:17:24.449Z,27.36
2018-05-06T21:19:57.491Z,27.43
2018-05-06T21:22:31.077Z,27.47
2018-05-06T21:25:03.591Z,27.50
2018-05-06T21:27:36.380Z,27.56
2018-05-06T21:30:09.176Z,27.60
2018-05-06T21:32:42.257Z,27.61
2018-05-06T21:35:15.459Z,27.62
2018-05-06T21:37:48.432Z,27.65
2018-05-06T21:40:21.493Z,27.69
2018-05-06T21:42:54.520Z,27.77
2018-05-06T21:45:27.132Z,27.84
2018-05-06T21:48:00.674Z,27.93
2018-05-06T21:50:33.976Z,28.03
2018-05-06T21:53:07.629Z,28.14
2018-05-06T21:55:41.043Z,28.23
2018-05-06T21:58:14.058Z,28.29
2018-05-06T22:00:47.660Z,28.30
2018-05-06T22:03:21.497Z,28.31
2018-05-06T22:05:54.488Z,28.31
2018-05-06T22:08:27.842Z,28.37
2018-05-06T22:11:00.937Z,28.42
2018-05-06T22:13:34.332Z,28.44
2018-05-06T22:16:06.951Z,28.47
2018-05-06T22:18:39.944Z,28.49
2018-05-06T22:21:13.264Z,28.52
2018-05-06T22:23:46.422Z,28.52
2018-05-06T22:26:19.769Z,28.51
2018-05-06T22:28:53.224Z,28.49
2018-05-06T22:31:25.439Z,28.51
2018-05-06T22:33:58.080Z,28.53
2018-05-06T22:36:31.337Z,28.54
2018-05-06T22:39:05.091Z,28.57
2018-05-06T22:41:38.022Z,28.56
2018-05-06T22:44:11.229Z,28.57
2018-05-06T22:46:44.337Z,28.60
2018-05-06T22:49:17.997Z,28.65
2018-05-06T22:51:51.715Z,28.67
2018-05-06T22:54:24.852Z,28.68
2018-05-06T22:56:57.462Z,28.68
2018-05-06T22:59:41.773Z,28.67
2018-05-06T23:02:14.962Z,28.61
2018-05-06T23:04:48.344Z,28.54
2018-05-06T23:07:21.527Z,28.53
2018-05-06T23:09:54.149Z,28.51
2018-05-06T23:12:26.810Z,28.47
2018-05-06T23:15:00.435Z,28.42
2018-05-06T23:17:34.344Z,28.36
2018-05-06T23:20:07.506Z,28.34
2018-05-06T23:22:40.833Z,28.32
2018-05-06T23:25:17.994Z,28.28
2018-05-06T23:27:51.753Z,28.24
2018-05-06T23:30:25.433Z,28.24
2018-05-06T23:33:01.803Z,28.20
2018-05-06T23:35:34.905Z,28.18
2018-05-06T23:38:08.446Z,28.15
2018-05-06T23:40:41.822Z,28.13
2018-05-06T23:43:14.472Z,28.10
2018-05-06T23:45:48.450Z,28.09
2018-05-06T23:48:21.657Z,28.07
2018-05-06T23:50:54.458Z,28.06
2018-05-06T23:53:27.525Z,28.05
2018-05-06T23:56:00.346Z,27.99
2018-05-06T23:58:33.192Z,27.92
